sensor_id;sensor_type;location;lat;lon;timestamp;temperature;humidity
56318;DHT22;42225;45.440;20.306;2022-11-20T00:01:09;128.70;2252.80
56318;DHT22;42225;45.440;20.306;2022-11-20T00:03:37;128.70;2252.80
56318;DHT22;42225;45.440;20.306;2022-11-20T00:06:04;128.70;2252.80
56318;DHT22;42225;45.440;20.306;2022-11-20T00:08:30;128.70;2252.80
56318;DHT22;42225;45.440;20.306;2022-11-20T00:10:56;128.70;2252.80
56318;DHT22;42225;45.440;20.306;2022-11-20T00:13:22;128.70;2252.80
56318;DHT22;42225;45.440;20.306;2022-11-20T00:15:47;128.70;2252.80
56318;DHT22;42225;45.440;20.306;2022-11-20T00:18:13;128.70;2252.80
56318;DHT22;42225;45.440;20.306;2022-11-20T00:20:39;128.70;2252.80
56318;DHT22;42225;45.440;20.306;2022-11-20T00:23:05;128.70;2252.80
56318;DHT22;42225;45.440;20.306;2022-11-20T00:25:34;128.70;2252.80
56318;DHT22;42225;45.440;20.306;2022-11-20T00:28:00;128.70;2252.80
56318;DHT22;42225;45.440;20.306;2022-11-20T00:30:25;128.60;2252.80
56318;DHT22;42225;45.440;20.306;2022-11-20T00:32:51;128.60;2252.80
56318;DHT22;42225;45.440;20.306;2022-11-20T00:35:17;128.60;2252.80
56318;DHT22;42225;45.440;20.306;2022-11-20T00:37:43;128.60;2252.80
56318;DHT22;42225;45.440;20.306;2022-11-20T00:40:09;128.60;2252.80
56318;DHT22;42225;45.440;20.306;2022-11-20T00:42:35;128.60;2252.80
56318;DHT22;42225;45.440;20.306;2022-11-20T00:45:01;128.60;2252.80
56318;DHT22;42225;45.440;20.306;2022-11-20T00:47:26;128.60;2252.80
56318;DHT22;42225;45.440;20.306;2022-11-20T00:49:52;128.60;2252.80
56318;DHT22;42225;45.440;20.306;2022-11-20T00:52:18;128.60;2252.80
56318;DHT22;42225;45.440;20.306;2022-11-20T00:54:43;128.60;2252.80
56318;DHT22;42225;45.440;20.306;2022-11-20T00:57:09;128.60;2252.80
56318;DHT22;42225;45.440;20.306;2022-11-20T00:59:35;128.60;2252.80
56318;DHT22;42225;45.440;20.306;2022-11-20T01:02:00;128.50;2252.80
56318;DHT22;42225;45.440;20.306;2022-11-20T01:04:26;128.50;2252.80
56318;DHT22;42225;45.440;20.306;2022-11-20T01:06:52;128.50;2252.80
56318;DHT22;42225;45.440;20.306;2022-11-20T01:09:17;128.50;2252.80
56318;DHT22;42225;45.440;20.306;2022-11-20T01:11:44;128.50;2252.80
56318;DHT22;42225;45.440;20.306;2022-11-20T01:14:13;128.50;2252.80
56318;DHT22;42225;45.440;20.306;2022-11-20T01:16:45;128.50;2252.80
56318;DHT22;42225;45.440;20.306;2022-11-20T01:19:13;128.50;2252.80
56318;DHT22;42225;45.440;20.306;2022-11-20T01:21:41;128.50;2252.80
56318;DHT22;42225;45.440;20.306;2022-11-20T01:24:10;128.50;2252.80
56318;DHT22;42225;45.440;20.306;2022-11-20T01:26:38;128.50;2252.80
56318;DHT22;42225;45.440;20.306;2022-11-20T01:29:04;128.50;2252.80
56318;DHT22;42225;45.440;20.306;2022-11-20T01:31:33;128.50;2252.80
56318;DHT22;42225;45.440;20.306;2022-11-20T01:34:01;128.50;2252.80
56318;DHT22;42225;45.440;20.306;2022-11-20T01:36:29;128.50;2252.80
56318;DHT22;42225;45.440;20.306;2022-11-20T01:39:00;128.50;2252.80
56318;DHT22;42225;45.440;20.306;2022-11-20T01:41:28;128.40;2252.80
56318;DHT22;42225;45.440;20.306;2022-11-20T01:44:14;128.40;2252.80
56318;DHT22;42225;45.440;20.306;2022-11-20T01:46:56;128.40;2252.80
56318;DHT22;42225;45.440;20.306;2022-11-20T01:49:39;128.40;2252.80
56318;DHT22;42225;45.440;20.306;2022-11-20T01:52:13;128.40;2252.80
56318;DHT22;42225;45.440;20.306;2022-11-20T01:54:45;128.40;2252.80
56318;DHT22;42225;45.440;20.306;2022-11-20T01:57:12;128.40;2252.80
56318;DHT22;42225;45.440;20.306;2022-11-20T01:59:42;128.40;2252.80
56318;DHT22;42225;45.440;20.306;2022-11-20T02:02:09;128.40;2252.80
56318;DHT22;42225;45.440;20.306;2022-11-20T02:04:35;128.40;2252.80
56318;DHT22;42225;45.440;20.306;2022-11-20T02:07:02;128.40;2252.80
56318;DHT22;42225;45.440;20.306;2022-11-20T02:09:29;128.40;2252.80
56318;DHT22;42225;45.440;20.306;2022-11-20T02:11:55;128.40;2252.80
56318;DHT22;42225;45.440;20.306;2022-11-20T02:14:21;128.50;2252.80
56318;DHT22;42225;45.440;20.306;2022-11-20T02:16:48;128.50;2252.80
56318;DHT22;42225;45.440;20.306;2022-11-20T02:19:29;128.60;2252.80
56318;DHT22;42225;45.440;20.306;2022-11-20T02:22:05;128.60;2252.80
56318;DHT22;42225;45.440;20.306;2022-11-20T02:24:34;128.60;2252.80
56318;DHT22;42225;45.440;20.306;2022-11-20T02:27:06;128.60;2252.80
56318;DHT22;42225;45.440;20.306;2022-11-20T02:29:52;128.70;2252.80
56318;DHT22;42225;45.440;20.306;2022-11-20T02:34:50;128.70;2252.80
56318;DHT22;42225;45.440;20.306;2022-11-20T02:37:16;128.70;2252.80
56318;DHT22;42225;45.440;20.306;2022-11-20T02:39:45;128.70;2252.80
56318;DHT22;42225;45.440;20.306;2022-11-20T02:42:11;128.70;2252.80
56318;DHT22;42225;45.440;20.306;2022-11-20T02:44:37;128.70;2252.80
56318;DHT22;42225;45.440;20.306;2022-11-20T02:47:03;128.70;2252.80
56318;DHT22;42225;45.440;20.306;2022-11-20T02:49:29;128.70;2252.80
56318;DHT22;42225;45.440;20.306;2022-11-20T02:51:54;128.70;2252.80
56318;DHT22;42225;45.440;20.306;2022-11-20T02:54:20;128.70;2252.80
56318;DHT22;42225;45.440;20.306;2022-11-20T02:56:46;128.70;2252.80
56318;DHT22;42225;45.440;20.306;2022-11-20T02:59:11;128.70;2252.80
56318;DHT22;42225;45.440;20.306;2022-11-20T03:01:37;128.70;2252.80
56318;DHT22;42225;45.440;20.306;2022-11-20T03:04:03;128.70;2252.80
56318;DHT22;42225;45.440;20.306;2022-11-20T03:06:29;128.70;2252.80
56318;DHT22;42225;45.440;20.306;2022-11-20T03:08:54;128.70;2252.80
56318;DHT22;42225;45.440;20.306;2022-11-20T03:11:20;128.80;2252.80
56318;DHT22;42225;45.440;20.306;2022-11-20T03:13:46;128.80;2252.80
56318;DHT22;42225;45.440;20.306;2022-11-20T03:16:14;128.80;2252.80
56318;DHT22;42225;45.440;20.306;2022-11-20T03:18:41;128.80;2252.80
56318;DHT22;42225;45.440;20.306;2022-11-20T03:21:08;128.80;2252.80
56318;DHT22;42225;45.440;20.306;2022-11-20T03:23:35;128.90;2252.80
56318;DHT22;42225;45.440;20.306;2022-11-20T03:26:22;128.90;2252.80
56318;DHT22;42225;45.440;20.306;2022-11-20T03:28:53;153.60;2252.80
56318;DHT22;42225;45.440;20.306;2022-11-20T03:31:22;128.90;2252.80
56318;DHT22;42225;45.440;20.306;2022-11-20T03:33:48;128.90;2252.80
56318;DHT22;42225;45.440;20.306;2022-11-20T03:36:16;128.90;2252.80
56318;DHT22;42225;45.440;20.306;2022-11-20T03:38:42;128.90;2252.80
56318;DHT22;42225;45.440;20.306;2022-11-20T03:41:10;128.90;2252.80
56318;DHT22;42225;45.440;20.306;2022-11-20T03:43:36;128.80;2252.80
56318;DHT22;42225;45.440;20.306;2022-11-20T03:46:03;128.80;2252.80
56318;DHT22;42225;45.440;20.306;2022-11-20T03:48:29;128.80;2252.80
56318;DHT22;42225;45.440;20.306;2022-11-20T03:53:38;128.90;2252.80
56318;DHT22;42225;45.440;20.306;2022-11-20T03:56:05;128.80;2252.80
56318;DHT22;42225;45.440;20.306;2022-11-20T03:58:30;128.80;2252.80
56318;DHT22;42225;45.440;20.306;2022-11-20T04:00:57;128.80;2252.80
56318;DHT22;42225;45.440;20.306;2022-11-20T04:03:23;128.80;2252.80
56318;DHT22;42225;45.440;20.306;2022-11-20T04:05:49;128.80;2252.80
56318;DHT22;42225;45.440;20.306;2022-11-20T04:08:14;128.70;2252.80
56318;DHT22;42225;45.440;20.306;2022-11-20T04:10:40;128.70;2252.80
56318;DHT22;42225;45.440;20.306;2022-11-20T04:13:06;128.70;2252.80
56318;DHT22;42225;45.440;20.306;2022-11-20T04:15:31;128.70;2252.80
56318;DHT22;42225;45.440;20.306;2022-11-20T04:17:57;128.70;2252.80
56318;DHT22;42225;45.440;20.306;2022-11-20T04:20:23;128.70;2252.80
56318;DHT22;42225;45.440;20.306;2022-11-20T04:22:48;128.70;2252.80
56318;DHT22;42225;45.440;20.306;2022-11-20T04:25:14;128.70;2252.80
56318;DHT22;42225;45.440;20.306;2022-11-20T04:27:40;128.70;2252.80
56318;DHT22;42225;45.440;20.306;2022-11-20T04:30:06;128.70;2252.80
56318;DHT22;42225;45.440;20.306;2022-11-20T04:32:32;128.70;2252.80
56318;DHT22;42225;45.440;20.306;2022-11-20T04:34:57;128.70;2252.80
56318;DHT22;42225;45.440;20.306;2022-11-20T04:37:23;128.80;2252.80
56318;DHT22;42225;45.440;20.306;2022-11-20T04:39:49;128.70;2252.80
56318;DHT22;42225;45.440;20.306;2022-11-20T04:42:14;128.70;2252.80
56318;DHT22;42225;45.440;20.306;2022-11-20T04:44:57;128.50;2252.80
56318;DHT22;42225;45.440;20.306;2022-11-20T04:47:23;128.40;2252.80
56318;DHT22;42225;45.440;20.306;2022-11-20T04:49:48;128.30;2252.80
56318;DHT22;42225;45.440;20.306;2022-11-20T04:52:14;128.30;2252.80
56318;DHT22;42225;45.440;20.306;2022-11-20T04:54:40;128.30;2252.80
56318;DHT22;42225;45.440;20.306;2022-11-20T04:57:05;128.20;2252.80
56318;DHT22;42225;45.440;20.306;2022-11-20T04:59:31;128.10;2252.80
56318;DHT22;42225;45.440;20.306;2022-11-20T05:01:57;128.10;2252.80
56318;DHT22;42225;45.440;20.306;2022-11-20T05:04:23;128.10;2252.80
56318;DHT22;42225;45.440;20.306;2022-11-20T05:06:49;128.10;2252.80
56318;DHT22;42225;45.440;20.306;2022-11-20T05:09:15;128.00;2252.80
56318;DHT22;42225;45.440;20.306;2022-11-20T05:11:41;103.30;2227.20
56318;DHT22;42225;45.440;20.306;2022-11-20T05:14:06;103.10;2227.20
56318;DHT22;42225;45.440;20.306;2022-11-20T05:16:34;103.20;2227.20
56318;DHT22;42225;45.440;20.306;2022-11-20T05:19:01;103.10;2227.20
56318;DHT22;42225;45.440;20.306;2022-11-20T05:21:29;103.10;2227.20
56318;DHT22;42225;45.440;20.306;2022-11-20T05:23:55;103.10;2227.20
56318;DHT22;42225;45.440;20.306;2022-11-20T05:26:22;103.10;2227.20
56318;DHT22;42225;45.440;20.306;2022-11-20T05:28:48;103.00;2227.20
56318;DHT22;42225;45.440;20.306;2022-11-20T05:31:22;103.00;2227.20
56318;DHT22;42225;45.440;20.306;2022-11-20T05:33:47;103.00;2227.20
56318;DHT22;42225;45.440;20.306;2022-11-20T05:36:14;103.00;2227.20
56318;DHT22;42225;45.440;20.306;2022-11-20T05:38:41;102.90;2227.20
56318;DHT22;42225;45.440;20.306;2022-11-20T05:41:13;102.90;2227.20
56318;DHT22;42225;45.440;20.306;2022-11-20T05:43:40;102.90;2227.20
56318;DHT22;42225;45.440;20.306;2022-11-20T05:46:07;103.00;2227.20
56318;DHT22;42225;45.440;20.306;2022-11-20T05:48:34;102.90;2227.20
56318;DHT22;42225;45.440;20.306;2022-11-20T05:51:01;102.90;2227.20
56318;DHT22;42225;45.440;20.306;2022-11-20T05:53:27;102.80;2227.20
56318;DHT22;42225;45.440;20.306;2022-11-20T05:56:14;102.80;2227.20
56318;DHT22;42225;45.440;20.306;2022-11-20T05:58:40;102.80;2227.20
56318;DHT22;42225;45.440;20.306;2022-11-20T06:01:15;102.90;2227.20
56318;DHT22;42225;45.440;20.306;2022-11-20T06:03:42;102.80;2227.20
56318;DHT22;42225;45.440;20.306;2022-11-20T06:06:11;102.70;2227.20
56318;DHT22;42225;45.440;20.306;2022-11-20T06:08:37;102.70;2227.20
56318;DHT22;42225;45.440;20.306;2022-11-20T06:11:04;102.70;2227.20
56318;DHT22;42225;45.440;20.306;2022-11-20T06:13:30;102.70;2227.20
56318;DHT22;42225;45.440;20.306;2022-11-20T06:15:56;102.70;2227.20
56318;DHT22;42225;45.440;20.306;2022-11-20T06:18:21;102.70;2227.20
56318;DHT22;42225;45.440;20.306;2022-11-20T06:20:47;102.80;2227.20
56318;DHT22;42225;45.440;20.306;2022-11-20T06:23:13;102.70;2227.20
56318;DHT22;42225;45.440;20.306;2022-11-20T06:25:42;102.80;2227.20
56318;DHT22;42225;45.440;20.306;2022-11-20T06:28:08;102.80;2227.20
56318;DHT22;42225;45.440;20.306;2022-11-20T06:30:35;102.80;2227.20
56318;DHT22;42225;45.440;20.306;2022-11-20T06:33:01;102.70;2227.20
56318;DHT22;42225;45.440;20.306;2022-11-20T06:35:27;102.70;2227.20
56318;DHT22;42225;45.440;20.306;2022-11-20T06:37:52;102.80;2227.20
56318;DHT22;42225;45.440;20.306;2022-11-20T06:40:18;102.80;2227.20
56318;DHT22;42225;45.440;20.306;2022-11-20T06:42:44;102.80;2227.20
56318;DHT22;42225;45.440;20.306;2022-11-20T06:45:10;102.80;2227.20
56318;DHT22;42225;45.440;20.306;2022-11-20T06:47:35;102.70;2227.20
56318;DHT22;42225;45.440;20.306;2022-11-20T06:50:01;102.80;2227.20
56318;DHT22;42225;45.440;20.306;2022-11-20T06:52:27;102.80;2227.20
56318;DHT22;42225;45.440;20.306;2022-11-20T06:54:53;102.80;2227.20
56318;DHT22;42225;45.440;20.306;2022-11-20T06:57:18;102.90;2227.20
56318;DHT22;42225;45.440;20.306;2022-11-20T06:59:46;102.80;2227.20
56318;DHT22;42225;45.440;20.306;2022-11-20T07:02:12;102.90;2227.20
56318;DHT22;42225;45.440;20.306;2022-11-20T07:04:38;102.80;2227.20
56318;DHT22;42225;45.440;20.306;2022-11-20T07:07:04;102.90;2227.20
56318;DHT22;42225;45.440;20.306;2022-11-20T07:09:30;102.90;2227.20
56318;DHT22;42225;45.440;20.306;2022-11-20T07:11:56;102.90;2227.20
56318;DHT22;42225;45.440;20.306;2022-11-20T07:14:21;102.90;2227.20
56318;DHT22;42225;45.440;20.306;2022-11-20T07:16:47;102.90;2227.20
56318;DHT22;42225;45.440;20.306;2022-11-20T07:19:13;103.00;2227.20
56318;DHT22;42225;45.440;20.306;2022-11-20T07:21:38;103.00;2227.20
56318;DHT22;42225;45.440;20.306;2022-11-20T07:24:04;102.90;2227.20
56318;DHT22;42225;45.440;20.306;2022-11-20T07:26:30;103.00;2227.20
56318;DHT22;42225;45.440;20.306;2022-11-20T07:28:55;103.00;2227.20
56318;DHT22;42225;45.440;20.306;2022-11-20T07:31:21;103.00;2227.20
56318;DHT22;42225;45.440;20.306;2022-11-20T07:33:47;103.00;2227.20
56318;DHT22;42225;45.440;20.306;2022-11-20T07:36:13;103.00;2227.20
56318;DHT22;42225;45.440;20.306;2022-11-20T07:38:38;103.10;2227.20
56318;DHT22;42225;45.440;20.306;2022-11-20T07:41:04;103.10;2227.20
56318;DHT22;42225;45.440;20.306;2022-11-20T07:43:30;103.10;2227.20
56318;DHT22;42225;45.440;20.306;2022-11-20T07:45:57;103.10;2227.20
56318;DHT22;42225;45.440;20.306;2022-11-20T07:48:24;103.10;2227.20
56318;DHT22;42225;45.440;20.306;2022-11-20T07:50:52;103.10;2227.20
56318;DHT22;42225;45.440;20.306;2022-11-20T07:53:18;103.20;2227.20
56318;DHT22;42225;45.440;20.306;2022-11-20T07:55:46;103.20;2227.20
56318;DHT22;42225;45.440;20.306;2022-11-20T07:58:12;103.10;2227.20
56318;DHT22;42225;45.440;20.306;2022-11-20T08:00:38;103.10;2227.20
56318;DHT22;42225;45.440;20.306;2022-11-20T08:03:04;103.10;2227.20
56318;DHT22;42225;45.440;20.306;2022-11-20T08:05:30;103.10;2227.20
56318;DHT22;42225;45.440;20.306;2022-11-20T08:07:56;103.10;2227.20
56318;DHT22;42225;45.440;20.306;2022-11-20T08:10:21;103.20;2227.20
56318;DHT22;42225;45.440;20.306;2022-11-20T08:12:51;103.10;2227.20
56318;DHT22;42225;45.440;20.306;2022-11-20T08:15:37;103.20;2227.20
56318;DHT22;42225;45.440;20.306;2022-11-20T08:18:05;103.20;2227.20
56318;DHT22;42225;45.440;20.306;2022-11-20T08:20:32;103.20;2227.20
56318;DHT22;42225;45.440;20.306;2022-11-20T08:22:59;103.20;2227.20
56318;DHT22;42225;45.440;20.306;2022-11-20T08:25:25;103.20;2227.20
56318;DHT22;42225;45.440;20.306;2022-11-20T08:27:51;103.20;2227.20
56318;DHT22;42225;45.440;20.306;2022-11-20T08:30:17;103.30;2227.20
56318;DHT22;42225;45.440;20.306;2022-11-20T08:32:43;103.30;2227.20
56318;DHT22;42225;45.440;20.306;2022-11-20T08:35:08;103.30;2227.20
56318;DHT22;42225;45.440;20.306;2022-11-20T08:37:34;103.30;2227.20
56318;DHT22;42225;45.440;20.306;2022-11-20T08:40:00;128.00;2252.80
56318;DHT22;42225;45.440;20.306;2022-11-20T08:42:25;128.10;2252.80
56318;DHT22;42225;45.440;20.306;2022-11-20T08:44:51;128.00;2252.80
56318;DHT22;42225;45.440;20.306;2022-11-20T08:47:17;128.00;2252.80
56318;DHT22;42225;45.440;20.306;2022-11-20T08:49:42;128.00;2252.80
56318;DHT22;42225;45.440;20.306;2022-11-20T08:52:08;128.00;2252.80
56318;DHT22;42225;45.440;20.306;2022-11-20T08:54:34;128.00;2252.80
56318;DHT22;42225;45.440;20.306;2022-11-20T08:57:00;128.00;2252.80
56318;DHT22;42225;45.440;20.306;2022-11-20T08:59:25;128.00;2252.80
56318;DHT22;42225;45.440;20.306;2022-11-20T09:01:51;128.00;2252.80
56318;DHT22;42225;45.440;20.306;2022-11-20T09:04:17;128.00;2252.80
56318;DHT22;42225;45.440;20.306;2022-11-20T09:06:42;128.00;2252.80
56318;DHT22;42225;45.440;20.306;2022-11-20T09:09:08;128.10;2252.80
56318;DHT22;42225;45.440;20.306;2022-11-20T09:11:34;128.00;2252.80
56318;DHT22;42225;45.440;20.306;2022-11-20T09:14:10;128.00;2252.80
56318;DHT22;42225;45.440;20.306;2022-11-20T09:16:38;128.00;2252.80
56318;DHT22;42225;45.440;20.306;2022-11-20T09:19:04;103.30;2227.20
56318;DHT22;42225;45.440;20.306;2022-11-20T09:21:30;103.30;2227.20
56318;DHT22;42225;45.440;20.306;2022-11-20T09:23:56;103.30;2227.20
56318;DHT22;42225;45.440;20.306;2022-11-20T09:26:22;103.30;2227.20
56318;DHT22;42225;45.440;20.306;2022-11-20T09:28:47;128.00;2252.80
56318;DHT22;42225;45.440;20.306;2022-11-20T09:31:24;128.10;2252.80
56318;DHT22;42225;45.440;20.306;2022-11-20T09:33:51;128.00;2252.80
56318;DHT22;42225;45.440;20.306;2022-11-20T09:36:17;103.30;2227.20
56318;DHT22;42225;45.440;20.306;2022-11-20T09:38:47;128.00;2252.80
56318;DHT22;42225;45.440;20.306;2022-11-20T09:41:39;128.00;2252.80
56318;DHT22;42225;45.440;20.306;2022-11-20T09:47:02;128.00;2252.80
56318;DHT22;42225;45.440;20.306;2022-11-20T09:54:45;128.00;2252.80
56318;DHT22;42225;45.440;20.306;2022-11-20T09:57:13;128.10;2252.80
56318;DHT22;42225;45.440;20.306;2022-11-20T10:04:47;128.10;2252.80
56318;DHT22;42225;45.440;20.306;2022-11-20T10:07:21;128.20;2252.80
56318;DHT22;42225;45.440;20.306;2022-11-20T10:09:52;128.10;2252.80
56318;DHT22;42225;45.440;20.306;2022-11-20T10:20:28;128.20;2252.80
56318;DHT22;42225;45.440;20.306;2022-11-20T10:23:10;128.20;2252.80
56318;DHT22;42225;45.440;20.306;2022-11-20T10:25:54;128.20;2252.80
56318;DHT22;42225;45.440;20.306;2022-11-20T10:28:28;128.20;2252.80
56318;DHT22;42225;45.440;20.306;2022-11-20T10:31:02;128.20;2252.80
56318;DHT22;42225;45.440;20.306;2022-11-20T10:33:36;128.20;2252.80
56318;DHT22;42225;45.440;20.306;2022-11-20T10:36:27;128.20;2252.80
56318;DHT22;42225;45.440;20.306;2022-11-20T10:39:16;128.30;2252.80
56318;DHT22;42225;45.440;20.306;2022-11-20T10:41:45;128.30;2252.80
56318;DHT22;42225;45.440;20.306;2022-11-20T10:44:24;128.30;2252.80
56318;DHT22;42225;45.440;20.306;2022-11-20T10:47:15;128.30;2252.80
56318;DHT22;42225;45.440;20.306;2022-11-20T10:49:43;128.30;2252.80
56318;DHT22;42225;45.440;20.306;2022-11-20T11:00:32;128.30;2252.80
56318;DHT22;42225;45.440;20.306;2022-11-20T11:02:58;128.30;2252.80
56318;DHT22;42225;45.440;20.306;2022-11-20T11:05:42;128.30;2252.80
56318;DHT22;42225;45.440;20.306;2022-11-20T11:08:17;128.30;2252.80
56318;DHT22;42225;45.440;20.306;2022-11-20T11:10:57;128.20;2252.80
56318;DHT22;42225;45.440;20.306;2022-11-20T11:13:29;128.20;2252.80
56318;DHT22;42225;45.440;20.306;2022-11-20T11:15:55;128.20;2252.80
56318;DHT22;42225;45.440;20.306;2022-11-20T11:18:29;128.10;2252.80
56318;DHT22;42225;45.440;20.306;2022-11-20T11:20:57;128.10;2252.80
56318;DHT22;42225;45.440;20.306;2022-11-20T11:23:42;128.00;2252.80
56318;DHT22;42225;45.440;20.306;2022-11-20T11:26:24;128.00;2252.80
56318;DHT22;42225;45.440;20.306;2022-11-20T11:31:32;128.10;2252.80
56318;DHT22;42225;45.440;20.306;2022-11-20T11:34:11;128.00;2252.80
56318;DHT22;42225;45.440;20.306;2022-11-20T11:36:37;128.00;2252.80
56318;DHT22;42225;45.440;20.306;2022-11-20T11:39:05;103.30;2227.20
56318;DHT22;42225;45.440;20.306;2022-11-20T11:41:33;103.30;2227.20
56318;DHT22;42225;45.440;20.306;2022-11-20T11:44:29;128.00;2252.80
56318;DHT22;42225;45.440;20.306;2022-11-20T11:47:31;128.00;2252.80
56318;DHT22;42225;45.440;20.306;2022-11-20T11:55:36;128.00;2252.80
56318;DHT22;42225;45.440;20.306;2022-11-20T12:00:37;128.10;2252.80
56318;DHT22;42225;45.440;20.306;2022-11-20T12:03:39;128.20;2252.80
56318;DHT22;42225;45.440;20.306;2022-11-20T12:06:14;128.20;2252.80
56318;DHT22;42225;45.440;20.306;2022-11-20T12:08:49;128.20;2252.80
56318;DHT22;42225;45.440;20.306;2022-11-20T12:11:33;128.20;2252.80
56318;DHT22;42225;45.440;20.306;2022-11-20T12:16:45;128.20;2252.80
56318;DHT22;42225;45.440;20.306;2022-11-20T12:19:13;128.30;2252.80
56318;DHT22;42225;45.440;20.306;2022-11-20T12:30:16;128.50;2252.80
56318;DHT22;42225;45.440;20.306;2022-11-20T12:33:25;128.50;2252.80
56318;DHT22;42225;45.440;20.306;2022-11-20T12:36:13;128.60;2252.80
56318;DHT22;42225;45.440;20.306;2022-11-20T12:44:43;128.70;2252.80
56318;DHT22;42225;45.440;20.306;2022-11-20T12:58:31;153.60;2252.80
56318;DHT22;42225;45.440;20.306;2022-11-20T13:01:21;128.90;2252.80
56318;DHT22;42225;45.440;20.306;2022-11-20T13:07:12;153.60;2252.80
56318;DHT22;42225;45.440;20.306;2022-11-20T13:09:45;153.60;2252.80
56318;DHT22;42225;45.440;20.306;2022-11-20T13:15:27;153.60;2252.80
56318;DHT22;42225;45.440;20.306;2022-11-20T13:18:01;128.90;2252.80
56318;DHT22;42225;45.440;20.306;2022-11-20T13:20:29;128.80;2252.80
56318;DHT22;42225;45.440;20.306;2022-11-20T13:22:56;128.80;2252.80
56318;DHT22;42225;45.440;20.306;2022-11-20T13:25:34;128.90;2252.80
56318;DHT22;42225;45.440;20.306;2022-11-20T13:30:49;128.90;2252.80
56318;DHT22;42225;45.440;20.306;2022-11-20T13:36:24;128.90;2252.80
56318;DHT22;42225;45.440;20.306;2022-11-20T13:38:52;153.60;2252.80
56318;DHT22;42225;45.440;20.306;2022-11-20T13:41:35;153.60;2252.80
56318;DHT22;42225;45.440;20.306;2022-11-20T13:46:40;153.60;2252.80
56318;DHT22;42225;45.440;20.306;2022-11-20T13:51:49;153.60;2252.80
56318;DHT22;42225;45.440;20.306;2022-11-20T14:02:40;128.90;2252.80
56318;DHT22;42225;45.440;20.306;2022-11-20T14:05:20;128.90;2252.80
56318;DHT22;42225;45.440;20.306;2022-11-20T14:07:48;153.60;2252.80
56318;DHT22;42225;45.440;20.306;2022-11-20T14:12:46;153.70;2252.80
56318;DHT22;42225;45.440;20.306;2022-11-20T14:15:41;153.70;2252.80
56318;DHT22;42225;45.440;20.306;2022-11-20T14:18:19;153.80;2252.80
56318;DHT22;42225;45.440;20.306;2022-11-20T14:20:45;153.80;2252.80
56318;DHT22;42225;45.440;20.306;2022-11-20T14:23:11;153.90;2252.80
56318;DHT22;42225;45.440;20.306;2022-11-20T14:25:42;153.90;2252.80
56318;DHT22;42225;45.440;20.306;2022-11-20T14:28:11;153.80;2252.80
56318;DHT22;42225;45.440;20.306;2022-11-20T14:30:45;153.80;2252.80
56318;DHT22;42225;45.440;20.306;2022-11-20T14:33:13;153.80;2252.80
56318;DHT22;42225;45.440;20.306;2022-11-20T14:35:50;153.80;2252.80
56318;DHT22;42225;45.440;20.306;2022-11-20T14:38:27;153.70;2252.80
56318;DHT22;42225;45.440;20.306;2022-11-20T14:40:54;153.70;2252.80
56318;DHT22;42225;45.440;20.306;2022-11-20T14:43:26;153.70;2252.80
56318;DHT22;42225;45.440;20.306;2022-11-20T14:46:07;153.70;2252.80
56318;DHT22;42225;45.440;20.306;2022-11-20T14:51:37;153.60;2252.80
56318;DHT22;42225;45.440;20.306;2022-11-20T14:54:18;153.60;2252.80
56318;DHT22;42225;45.440;20.306;2022-11-20T14:57:01;153.60;2252.80
56318;DHT22;42225;45.440;20.306;2022-11-20T14:59:34;153.60;2252.80
56318;DHT22;42225;45.440;20.306;2022-11-20T15:02:07;153.70;2252.80
56318;DHT22;42225;45.440;20.306;2022-11-20T15:04:48;153.60;2252.80
56318;DHT22;42225;45.440;20.306;2022-11-20T15:07:27;153.70;2252.80
56318;DHT22;42225;45.440;20.306;2022-11-20T15:10:27;153.60;2252.80
56318;DHT22;42225;45.440;20.306;2022-11-20T15:12:59;153.70;2252.80
56318;DHT22;42225;45.440;20.306;2022-11-20T15:18:13;153.70;2252.80
56318;DHT22;42225;45.440;20.306;2022-11-20T15:20:41;153.70;2252.80
56318;DHT22;42225;45.440;20.306;2022-11-20T15:23:15;153.70;2252.80
56318;DHT22;42225;45.440;20.306;2022-11-20T15:25:44;153.70;2252.80
56318;DHT22;42225;45.440;20.306;2022-11-20T15:30:54;153.80;2252.80
56318;DHT22;42225;45.440;20.306;2022-11-20T15:33:21;153.80;2252.80
56318;DHT22;42225;45.440;20.306;2022-11-20T15:35:46;153.70;2252.80
56318;DHT22;42225;45.440;20.306;2022-11-20T15:38:12;153.70;2252.80
56318;DHT22;42225;45.440;20.306;2022-11-20T15:40:38;153.70;2252.80
56318;DHT22;42225;45.440;20.306;2022-11-20T15:43:04;153.70;2252.80
56318;DHT22;42225;45.440;20.306;2022-11-20T15:45:47;153.70;2252.80
56318;DHT22;42225;45.440;20.306;2022-11-20T15:48:21;153.70;2252.80
56318;DHT22;42225;45.440;20.306;2022-11-20T15:53:27;153.70;2252.80
56318;DHT22;42225;45.440;20.306;2022-11-20T15:55:53;153.70;2252.80
56318;DHT22;42225;45.440;20.306;2022-11-20T15:58:18;153.70;2252.80
56318;DHT22;42225;45.440;20.306;2022-11-20T16:00:44;153.70;2252.80
56318;DHT22;42225;45.440;20.306;2022-11-20T16:03:17;153.70;2252.80
56318;DHT22;42225;45.440;20.306;2022-11-20T16:05:43;153.70;2252.80
56318;DHT22;42225;45.440;20.306;2022-11-20T16:08:09;153.70;2252.80
56318;DHT22;42225;45.440;20.306;2022-11-20T16:10:35;153.60;2252.80
56318;DHT22;42225;45.440;20.306;2022-11-20T16:13:01;153.70;2252.80
56318;DHT22;42225;45.440;20.306;2022-11-20T16:15:57;153.70;2252.80
56318;DHT22;42225;45.440;20.306;2022-11-20T16:18:24;153.70;2252.80
56318;DHT22;42225;45.440;20.306;2022-11-20T16:20:52;153.70;2252.80
56318;DHT22;42225;45.440;20.306;2022-11-20T16:23:19;153.70;2252.80
56318;DHT22;42225;45.440;20.306;2022-11-20T16:25:46;153.60;2252.80
56318;DHT22;42225;45.440;20.306;2022-11-20T16:28:12;153.60;2252.80
56318;DHT22;42225;45.440;20.306;2022-11-20T16:30:38;153.60;2252.80
56318;DHT22;42225;45.440;20.306;2022-11-20T16:33:04;153.60;2252.80
56318;DHT22;42225;45.440;20.306;2022-11-20T16:35:31;153.60;2252.80
56318;DHT22;42225;45.440;20.306;2022-11-20T16:37:57;153.70;2252.80
56318;DHT22;42225;45.440;20.306;2022-11-20T16:40:23;153.70;2252.80
56318;DHT22;42225;45.440;20.306;2022-11-20T16:42:50;153.70;2252.80